sensor_id;sensor_type;location;lat;lon;timestamp;temperature;humidity
12907;DHT22;6521;50.498;8.474;2023-04-24T00:02:29;10.36;82.39
12907;DHT22;6521;50.498;8.474;2023-04-24T00:05:01;10.35;82.50
12907;DHT22;6521;50.498;8.474;2023-04-24T00:07:33;10.35;82.47
12907;DHT22;6521;50.498;8.474;2023-04-24T00:10:08;10.36;82.30
12907;DHT22;6521;50.498;8.474;2023-04-24T00:12:39;10.33;82.36
12907;DHT22;6521;50.498;8.474;2023-04-24T00:15:10;10.36;82.09
12907;DHT22;6521;50.498;8.474;2023-04-24T00:18:12;10.32;82.32
12907;DHT22;6521;50.498;8.474;2023-04-24T00:20:45;10.36;81.92
12907;DHT22;6521;50.498;8.474;2023-04-24T00:23:17;10.38;81.70
12907;DHT22;6521;50.498;8.474;2023-04-24T00:26:33;10.36;81.52
12907;DHT22;6521;50.498;8.474;2023-04-24T00:29:04;10.38;81.17
12907;DHT22;6521;50.498;8.474;2023-04-24T00:31:34;10.36;81.30
12907;DHT22;6521;50.498;8.474;2023-04-24T00:34:05;10.38;81.26
12907;DHT22;6521;50.498;8.474;2023-04-24T00:40:05;10.39;81.17
12907;DHT22;6521;50.498;8.474;2023-04-24T00:42:36;10.43;81.00
12907;DHT22;6521;50.498;8.474;2023-04-24T00:45:08;10.43;80.86
12907;DHT22;6521;50.498;8.474;2023-04-24T00:47:41;10.45;80.94
12907;DHT22;6521;50.498;8.474;2023-04-24T00:50:14;10.47;80.91
12907;DHT22;6521;50.498;8.474;2023-04-24T00:52:45;10.49;81.06
12907;DHT22;6521;50.498;8.474;2023-04-24T00:55:17;10.46;81.10
12907;DHT22;6521;50.498;8.474;2023-04-24T00:57:48;10.53;81.14
12907;DHT22;6521;50.498;8.474;2023-04-24T01:00:19;10.52;81.31
12907;DHT22;6521;50.498;8.474;2023-04-24T01:02:51;10.53;81.26
12907;DHT22;6521;50.498;8.474;2023-04-24T01:05:22;10.52;81.40
12907;DHT22;6521;50.498;8.474;2023-04-24T01:07:53;10.60;81.45
12907;DHT22;6521;50.498;8.474;2023-04-24T01:10:25;10.61;81.46
12907;DHT22;6521;50.498;8.474;2023-04-24T01:12:58;10.66;81.35
12907;DHT22;6521;50.498;8.474;2023-04-24T01:15:29;10.66;81.52
12907;DHT22;6521;50.498;8.474;2023-04-24T01:18:00;10.64;81.57
12907;DHT22;6521;50.498;8.474;2023-04-24T01:20:32;10.63;81.79
12907;DHT22;6521;50.498;8.474;2023-04-24T01:23:03;10.68;81.68
12907;DHT22;6521;50.498;8.474;2023-04-24T01:25:34;10.64;81.78
12907;DHT22;6521;50.498;8.474;2023-04-24T01:28:06;10.64;81.76
12907;DHT22;6521;50.498;8.474;2023-04-24T01:30:37;10.66;81.82
12907;DHT22;6521;50.498;8.474;2023-04-24T01:33:08;10.63;82.05
12907;DHT22;6521;50.498;8.474;2023-04-24T01:35:39;10.59;82.19
12907;DHT22;6521;50.498;8.474;2023-04-24T01:38:16;10.57;82.91
12907;DHT22;6521;50.498;8.474;2023-04-24T01:40:47;10.46;83.87
12907;DHT22;6521;50.498;8.474;2023-04-24T01:43:18;10.39;84.72
12907;DHT22;6521;50.498;8.474;2023-04-24T01:45:49;10.35;85.46
12907;DHT22;6521;50.498;8.474;2023-04-24T01:48:20;10.23;86.19
12907;DHT22;6521;50.498;8.474;2023-04-24T01:50:51;10.18;86.73
12907;DHT22;6521;50.498;8.474;2023-04-24T01:53:22;10.12;87.15
12907;DHT22;6521;50.498;8.474;2023-04-24T01:55:53;10.18;87.46
12907;DHT22;6521;50.498;8.474;2023-04-24T01:58:27;10.15;87.47
12907;DHT22;6521;50.498;8.474;2023-04-24T02:01:03;10.01;88.23
12907;DHT22;6521;50.498;8.474;2023-04-24T02:03:34;10.02;88.29
12907;DHT22;6521;50.498;8.474;2023-04-24T02:06:05;10.01;88.67
12907;DHT22;6521;50.498;8.474;2023-04-24T02:08:36;9.97;88.93
12907;DHT22;6521;50.498;8.474;2023-04-24T02:11:10;9.95;88.76
12907;DHT22;6521;50.498;8.474;2023-04-24T02:13:41;9.95;88.80
12907;DHT22;6521;50.498;8.474;2023-04-24T02:16:12;9.97;88.67
12907;DHT22;6521;50.498;8.474;2023-04-24T02:18:43;9.98;88.10
12907;DHT22;6521;50.498;8.474;2023-04-24T02:21:14;9.95;88.13
12907;DHT22;6521;50.498;8.474;2023-04-24T02:23:45;9.92;88.16
12907;DHT22;6521;50.498;8.474;2023-04-24T02:26:17;9.88;88.33
12907;DHT22;6521;50.498;8.474;2023-04-24T02:28:48;9.82;88.25
12907;DHT22;6521;50.498;8.474;2023-04-24T02:31:19;9.81;88.22
12907;DHT22;6521;50.498;8.474;2023-04-24T02:33:52;9.75;88.14
12907;DHT22;6521;50.498;8.474;2023-04-24T02:36:23;9.73;88.28
12907;DHT22;6521;50.498;8.474;2023-04-24T02:38:54;9.62;88.60
12907;DHT22;6521;50.498;8.474;2023-04-24T02:41:25;9.65;88.43
12907;DHT22;6521;50.498;8.474;2023-04-24T02:44:01;9.55;88.63
12907;DHT22;6521;50.498;8.474;2023-04-24T02:46:32;9.51;88.90
12907;DHT22;6521;50.498;8.474;2023-04-24T02:49:03;9.50;89.03
12907;DHT22;6521;50.498;8.474;2023-04-24T02:51:34;9.51;89.10
12907;DHT22;6521;50.498;8.474;2023-04-24T02:54:05;9.47;88.96
12907;DHT22;6521;50.498;8.474;2023-04-24T02:56:36;9.57;88.27
12907;DHT22;6521;50.498;8.474;2023-04-24T02:59:08;9.52;88.10
12907;DHT22;6521;50.498;8.474;2023-04-24T03:01:39;9.51;88.03
12907;DHT22;6521;50.498;8.474;2023-04-24T03:04:10;9.50;87.94
12907;DHT22;6521;50.498;8.474;2023-04-24T03:06:41;9.51;87.65
12907;DHT22;6521;50.498;8.474;2023-04-24T03:09:15;9.46;87.71
12907;DHT22;6521;50.498;8.474;2023-04-24T03:12:10;9.44;87.45
12907;DHT22;6521;50.498;8.474;2023-04-24T03:14:41;9.46;86.99
12907;DHT22;6521;50.498;8.474;2023-04-24T03:17:12;9.41;87.26
12907;DHT22;6521;50.498;8.474;2023-04-24T03:20:06;9.43;87.22
12907;DHT22;6521;50.498;8.474;2023-04-24T03:26:44;9.39;86.86
12907;DHT22;6521;50.498;8.474;2023-04-24T03:30:05;9.34;86.85
12907;DHT22;6521;50.498;8.474;2023-04-24T03:33:11;9.31;86.41
12907;DHT22;6521;50.498;8.474;2023-04-24T03:35:50;9.27;86.52
12907;DHT22;6521;50.498;8.474;2023-04-24T03:38:21;9.31;86.09
12907;DHT22;6521;50.498;8.474;2023-04-24T03:41:03;9.31;85.39
12907;DHT22;6521;50.498;8.474;2023-04-24T03:43:51;9.27;84.94
12907;DHT22;6521;50.498;8.474;2023-04-24T03:46:21;9.24;84.59
12907;DHT22;6521;50.498;8.474;2023-04-24T03:48:58;9.22;84.81
12907;DHT22;6521;50.498;8.474;2023-04-24T03:51:33;9.16;84.58
12907;DHT22;6521;50.498;8.474;2023-04-24T03:54:21;9.15;84.47
12907;DHT22;6521;50.498;8.474;2023-04-24T03:56:57;9.06;84.90
12907;DHT22;6521;50.498;8.474;2023-04-24T03:59:30;9.03;84.59
12907;DHT22;6521;50.498;8.474;2023-04-24T04:02:14;9.02;84.68
12907;DHT22;6521;50.498;8.474;2023-04-24T04:04:45;8.98;84.43
12907;DHT22;6521;50.498;8.474;2023-04-24T04:07:16;8.95;84.13
12907;DHT22;6521;50.498;8.474;2023-04-24T04:09:46;8.89;83.90
12907;DHT22;6521;50.498;8.474;2023-04-24T04:12:17;8.88;83.46
12907;DHT22;6521;50.498;8.474;2023-04-24T04:14:54;8.78;83.00
12907;DHT22;6521;50.498;8.474;2023-04-24T04:17:26;8.72;83.09
12907;DHT22;6521;50.498;8.474;2023-04-24T04:19:56;8.71;83.07
12907;DHT22;6521;50.498;8.474;2023-04-24T04:22:27;8.65;83.09
12907;DHT22;6521;50.498;8.474;2023-04-24T04:24:58;8.60;83.27
12907;DHT22;6521;50.498;8.474;2023-04-24T04:27:31;8.48;83.32
12907;DHT22;6521;50.498;8.474;2023-04-24T04:30:07;8.45;83.34
12907;DHT22;6521;50.498;8.474;2023-04-24T04:32:48;8.45;83.15
12907;DHT22;6521;50.498;8.474;2023-04-24T04:35:19;8.42;82.44
12907;DHT22;6521;50.498;8.474;2023-04-24T04:37:53;8.37;81.83
12907;DHT22;6521;50.498;8.474;2023-04-24T04:40:43;8.36;81.77
12907;DHT22;6521;50.498;8.474;2023-04-24T04:43:15;8.36;81.48
12907;DHT22;6521;50.498;8.474;2023-04-24T04:45:52;8.26;81.39
12907;DHT22;6521;50.498;8.474;2023-04-24T04:48:48;8.21;81.21
12907;DHT22;6521;50.498;8.474;2023-04-24T04:51:19;8.19;81.38
12907;DHT22;6521;50.498;8.474;2023-04-24T04:53:51;8.17;81.41
12907;DHT22;6521;50.498;8.474;2023-04-24T04:56:22;8.13;81.87
12907;DHT22;6521;50.498;8.474;2023-04-24T04:58:54;8.10;81.19
12907;DHT22;6521;50.498;8.474;2023-04-24T05:01:25;8.02;81.59
12907;DHT22;6521;50.498;8.474;2023-04-24T05:03:59;8.00;81.08
12907;DHT22;6521;50.498;8.474;2023-04-24T05:06:30;7.96;80.12
12907;DHT22;6521;50.498;8.474;2023-04-24T05:09:01;7.97;79.98
12907;DHT22;6521;50.498;8.474;2023-04-24T05:11:46;7.99;79.83
12907;DHT22;6521;50.498;8.474;2023-04-24T05:14:16;8.00;79.44
12907;DHT22;6521;50.498;8.474;2023-04-24T05:17:14;8.03;79.23
12907;DHT22;6521;50.498;8.474;2023-04-24T05:19:45;8.04;79.13
12907;DHT22;6521;50.498;8.474;2023-04-24T05:22:21;8.09;79.22
12907;DHT22;6521;50.498;8.474;2023-04-24T05:24:58;8.10;79.82
12907;DHT22;6521;50.498;8.474;2023-04-24T05:27:34;8.07;80.10
12907;DHT22;6521;50.498;8.474;2023-04-24T05:30:07;8.06;80.20
12907;DHT22;6521;50.498;8.474;2023-04-24T05:32:38;8.12;80.00
12907;DHT22;6521;50.498;8.474;2023-04-24T05:35:27;8.13;79.72
12907;DHT22;6521;50.498;8.474;2023-04-24T05:37:58;8.10;80.13
12907;DHT22;6521;50.498;8.474;2023-04-24T05:40:29;8.13;79.37
12907;DHT22;6521;50.498;8.474;2023-04-24T05:43:00;8.17;79.30
12907;DHT22;6521;50.498;8.474;2023-04-24T05:45:32;8.17;79.48
12907;DHT22;6521;50.498;8.474;2023-04-24T05:48:03;8.19;79.43
12907;DHT22;6521;50.498;8.474;2023-04-24T05:50:34;8.20;79.24
12907;DHT22;6521;50.498;8.474;2023-04-24T05:53:05;8.26;79.55
12907;DHT22;6521;50.498;8.474;2023-04-24T05:55:39;8.30;79.20
12907;DHT22;6521;50.498;8.474;2023-04-24T05:58:11;8.24;78.87
12907;DHT22;6521;50.498;8.474;2023-04-24T06:00:43;8.23;78.07
12907;DHT22;6521;50.498;8.474;2023-04-24T06:03:16;8.23;77.87
12907;DHT22;6521;50.498;8.474;2023-04-24T06:05:49;8.26;77.32
12907;DHT22;6521;50.498;8.474;2023-04-24T06:08:21;8.23;77.09
12907;DHT22;6521;50.498;8.474;2023-04-24T06:10:53;8.26;76.77
12907;DHT22;6521;50.498;8.474;2023-04-24T06:13:25;8.29;76.32
12907;DHT22;6521;50.498;8.474;2023-04-24T06:16:14;8.30;76.70
12907;DHT22;6521;50.498;8.474;2023-04-24T06:18:50;8.31;76.97
12907;DHT22;6521;50.498;8.474;2023-04-24T06:21:21;8.37;77.13
12907;DHT22;6521;50.498;8.474;2023-04-24T06:23:52;8.42;76.88
12907;DHT22;6521;50.498;8.474;2023-04-24T06:26:23;8.45;76.10
12907;DHT22;6521;50.498;8.474;2023-04-24T06:28:56;8.48;75.82
12907;DHT22;6521;50.498;8.474;2023-04-24T06:31:26;8.52;76.51
12907;DHT22;6521;50.498;8.474;2023-04-24T06:33:58;8.57;76.03
12907;DHT22;6521;50.498;8.474;2023-04-24T06:36:29;8.58;75.19
12907;DHT22;6521;50.498;8.474;2023-04-24T06:39:01;8.65;76.08
12907;DHT22;6521;50.498;8.474;2023-04-24T06:41:32;8.72;75.38
12907;DHT22;6521;50.498;8.474;2023-04-24T06:44:03;8.73;74.26
12907;DHT22;6521;50.498;8.474;2023-04-24T06:46:34;8.75;74.09
12907;DHT22;6521;50.498;8.474;2023-04-24T06:49:04;8.79;73.90
12907;DHT22;6521;50.498;8.474;2023-04-24T06:51:35;8.85;73.88
12907;DHT22;6521;50.498;8.474;2023-04-24T06:54:06;8.88;73.86
12907;DHT22;6521;50.498;8.474;2023-04-24T06:56:37;8.92;73.29
12907;DHT22;6521;50.498;8.474;2023-04-24T06:59:08;8.99;74.39
12907;DHT22;6521;50.498;8.474;2023-04-24T07:01:39;9.03;73.59
12907;DHT22;6521;50.498;8.474;2023-04-24T07:04:10;9.02;72.31
12907;DHT22;6521;50.498;8.474;2023-04-24T07:06:42;9.08;72.46
12907;DHT22;6521;50.498;8.474;2023-04-24T07:09:13;9.09;72.90
12907;DHT22;6521;50.498;8.474;2023-04-24T07:11:45;9.16;73.55
12907;DHT22;6521;50.498;8.474;2023-04-24T07:14:17;9.24;73.28
12907;DHT22;6521;50.498;8.474;2023-04-24T07:16:48;9.31;73.65
12907;DHT22;6521;50.498;8.474;2023-04-24T07:19:19;9.33;72.25
12907;DHT22;6521;50.498;8.474;2023-04-24T07:21:49;9.37;72.15
12907;DHT22;6521;50.498;8.474;2023-04-24T07:24:25;9.44;72.64
12907;DHT22;6521;50.498;8.474;2023-04-24T07:26:59;9.47;71.46
12907;DHT22;6521;50.498;8.474;2023-04-24T07:29:31;9.54;72.06
12907;DHT22;6521;50.498;8.474;2023-04-24T07:32:02;9.52;71.33
12907;DHT22;6521;50.498;8.474;2023-04-24T07:34:33;9.64;72.10
12907;DHT22;6521;50.498;8.474;2023-04-24T07:37:07;9.75;71.85
12907;DHT22;6521;50.498;8.474;2023-04-24T07:39:37;9.81;71.61
12907;DHT22;6521;50.498;8.474;2023-04-24T07:42:08;9.99;72.05
12907;DHT22;6521;50.498;8.474;2023-04-24T07:44:39;10.09;70.62
12907;DHT22;6521;50.498;8.474;2023-04-24T07:47:10;10.12;70.99
12907;DHT22;6521;50.498;8.474;2023-04-24T07:49:41;10.20;70.48
12907;DHT22;6521;50.498;8.474;2023-04-24T07:52:12;10.38;70.59
12907;DHT22;6521;50.498;8.474;2023-04-24T07:54:43;10.38;68.62
12907;DHT22;6521;50.498;8.474;2023-04-24T07:57:14;10.38;69.22
12907;DHT22;6521;50.498;8.474;2023-04-24T07:59:45;10.40;69.53
12907;DHT22;6521;50.498;8.474;2023-04-24T08:02:15;10.36;69.87
12907;DHT22;6521;50.498;8.474;2023-04-24T08:04:49;10.45;68.69
12907;DHT22;6521;50.498;8.474;2023-04-24T08:07:29;10.64;68.30
12907;DHT22;6521;50.498;8.474;2023-04-24T08:10:00;10.81;68.63
12907;DHT22;6521;50.498;8.474;2023-04-24T08:12:31;10.85;66.98
12907;DHT22;6521;50.498;8.474;2023-04-24T08:15:02;10.68;67.55
12907;DHT22;6521;50.498;8.474;2023-04-24T08:17:34;10.53;67.66
12907;DHT22;6521;50.498;8.474;2023-04-24T08:20:06;10.39;68.33
12907;DHT22;6521;50.498;8.474;2023-04-24T08:22:41;10.22;66.81
12907;DHT22;6521;50.498;8.474;2023-04-24T08:25:11;10.10;67.76
12907;DHT22;6521;50.498;8.474;2023-04-24T08:27:42;9.99;68.63
12907;DHT22;6521;50.498;8.474;2023-04-24T08:30:58;10.01;69.05
12907;DHT22;6521;50.498;8.474;2023-04-24T08:33:29;9.98;69.59
12907;DHT22;6521;50.498;8.474;2023-04-24T08:36:05;9.88;70.75
12907;DHT22;6521;50.498;8.474;2023-04-24T08:38:36;9.88;72.27
12907;DHT22;6521;50.498;8.474;2023-04-24T08:41:26;9.85;72.95
12907;DHT22;6521;50.498;8.474;2023-04-24T08:44:49;9.78;74.09
12907;DHT22;6521;50.498;8.474;2023-04-24T08:47:22;9.68;72.46
12907;DHT22;6521;50.498;8.474;2023-04-24T08:49:57;9.68;72.91
12907;DHT22;6521;50.498;8.474;2023-04-24T08:52:30;9.67;72.49
12907;DHT22;6521;50.498;8.474;2023-04-24T08:55:01;9.71;71.84
12907;DHT22;6521;50.498;8.474;2023-04-24T08:57:33;9.68;72.18
12907;DHT22;6521;50.498;8.474;2023-04-24T09:00:05;9.73;72.29
12907;DHT22;6521;50.498;8.474;2023-04-24T09:02:36;9.78;73.10
12907;DHT22;6521;50.498;8.474;2023-04-24T09:05:30;9.82;71.68
12907;DHT22;6521;50.498;8.474;2023-04-24T09:08:07;9.81;72.05
12907;DHT22;6521;50.498;8.474;2023-04-24T09:10:39;9.77;72.25
12907;DHT22;6521;50.498;8.474;2023-04-24T09:13:11;9.85;72.61
12907;DHT22;6521;50.498;8.474;2023-04-24T09:15:42;10.01;72.45
12907;DHT22;6521;50.498;8.474;2023-04-24T09:18:13;10.03;71.05
12907;DHT22;6521;50.498;8.474;2023-04-24T09:21:06;10.03;71.54
12907;DHT22;6521;50.498;8.474;2023-04-24T09:23:38;10.08;71.22
12907;DHT22;6521;50.498;8.474;2023-04-24T09:26:09;10.12;71.21
12907;DHT22;6521;50.498;8.474;2023-04-24T09:28:41;10.18;70.34
12907;DHT22;6521;50.498;8.474;2023-04-24T09:31:15;10.22;71.12
12907;DHT22;6521;50.498;8.474;2023-04-24T09:35:09;10.29;70.49
12907;DHT22;6521;50.498;8.474;2023-04-24T09:37:44;10.40;70.64
12907;DHT22;6521;50.498;8.474;2023-04-24T09:40:19;10.53;70.15
12907;DHT22;6521;50.498;8.474;2023-04-24T09:42:56;10.59;69.68
12907;DHT22;6521;50.498;8.474;2023-04-24T09:45:36;10.60;70.91
12907;DHT22;6521;50.498;8.474;2023-04-24T09:48:10;10.61;71.60
12907;DHT22;6521;50.498;8.474;2023-04-24T09:50:46;10.49;72.18
12907;DHT22;6521;50.498;8.474;2023-04-24T09:53:30;10.38;74.51
12907;DHT22;6521;50.498;8.474;2023-04-24T09:56:03;10.23;75.78
12907;DHT22;6521;50.498;8.474;2023-04-24T09:58:37;10.09;76.03
12907;DHT22;6521;50.498;8.474;2023-04-24T10:01:08;9.98;76.92
12907;DHT22;6521;50.498;8.474;2023-04-24T10:03:42;9.89;77.12
12907;DHT22;6521;50.498;8.474;2023-04-24T10:06:13;9.74;77.86
12907;DHT22;6521;50.498;8.474;2023-04-24T10:08:44;9.67;78.72
12907;DHT22;6521;50.498;8.474;2023-04-24T10:11:17;9.54;79.99
12907;DHT22;6521;50.498;8.474;2023-04-24T10:13:47;9.44;80.81
12907;DHT22;6521;50.498;8.474;2023-04-24T10:16:21;9.29;81.56
12907;DHT22;6521;50.498;8.474;2023-04-24T10:18:52;9.20;80.69
12907;DHT22;6521;50.498;8.474;2023-04-24T10:21:24;9.06;80.92
12907;DHT22;6521;50.498;8.474;2023-04-24T10:23:57;9.00;80.74
12907;DHT22;6521;50.498;8.474;2023-04-24T10:26:31;8.96;81.34
12907;DHT22;6521;50.498;8.474;2023-04-24T10:29:03;9.02;81.57
12907;DHT22;6521;50.498;8.474;2023-04-24T10:31:37;9.02;81.80
12907;DHT22;6521;50.498;8.474;2023-04-24T10:34:09;9.30;82.05
12907;DHT22;6521;50.498;8.474;2023-04-24T10:36:47;9.67;82.30
12907;DHT22;6521;50.498;8.474;2023-04-24T10:39:19;9.87;81.85
12907;DHT22;6521;50.498;8.474;2023-04-24T10:41:50;9.88;79.62
12907;DHT22;6521;50.498;8.474;2023-04-24T10:44:22;9.94;80.45
12907;DHT22;6521;50.498;8.474;2023-04-24T10:46:55;10.20;80.76
12907;DHT22;6521;50.498;8.474;2023-04-24T10:49:30;10.50;79.97
12907;DHT22;6521;50.498;8.474;2023-04-24T10:52:03;10.67;78.25
12907;DHT22;6521;50.498;8.474;2023-04-24T10:54:44;10.78;77.78
12907;DHT22;6521;50.498;8.474;2023-04-24T11:00:19;10.94;78.28
12907;DHT22;6521;50.498;8.474;2023-04-24T11:02:52;10.96;75.44
12907;DHT22;6521;50.498;8.474;2023-04-24T11:08:30;10.98;78.67
12907;DHT22;6521;50.498;8.474;2023-04-24T11:11:16;10.91;76.86
12907;DHT22;6521;50.498;8.474;2023-04-24T11:21:50;11.03;75.31
12907;DHT22;6521;50.498;8.474;2023-04-24T11:24:48;11.01;74.98
12907;DHT22;6521;50.498;8.474;2023-04-24T11:27:29;10.84;74.32
12907;DHT22;6521;50.498;8.474;2023-04-24T11:30:02;10.67;73.93
12907;DHT22;6521;50.498;8.474;2023-04-24T11:37:51;10.45;75.46
12907;DHT22;6521;50.498;8.474;2023-04-24T11:40:24;10.30;76.39
12907;DHT22;6521;50.498;8.474;2023-04-24T11:42:55;10.25;76.96
12907;DHT22;6521;50.498;8.474;2023-04-24T11:45:28;10.10;78.11
12907;DHT22;6521;50.498;8.474;2023-04-24T11:47:59;10.03;78.92
12907;DHT22;6521;50.498;8.474;2023-04-24T11:50:30;9.95;79.28
12907;DHT22;6521;50.498;8.474;2023-04-24T11:53:02;9.80;79.93
12907;DHT22;6521;50.498;8.474;2023-04-24T11:55:34;9.68;81.64
12907;DHT22;6521;50.498;8.474;2023-04-24T11:58:05;9.55;81.59
12907;DHT22;6521;50.498;8.474;2023-04-24T12:00:37;9.46;81.92
12907;DHT22;6521;50.498;8.474;2023-04-24T12:03:10;9.36;80.47
12907;DHT22;6521;50.498;8.474;2023-04-24T12:05:41;9.20;79.71
12907;DHT22;6521;50.498;8.474;2023-04-24T12:08:26;9.12;80.76
12907;DHT22;6521;50.498;8.474;2023-04-24T12:11:00;9.23;79.78
12907;DHT22;6521;50.498;8.474;2023-04-24T12:13:31;9.31;79.12
12907;DHT22;6521;50.498;8.474;2023-04-24T12:16:03;9.48;79.46
12907;DHT22;6521;50.498;8.474;2023-04-24T12:18:41;9.46;78.40
12907;DHT22;6521;50.498;8.474;2023-04-24T12:21:20;9.31;78.76
12907;DHT22;6521;50.498;8.474;2023-04-24T12:23:54;9.24;78.98
12907;DHT22;6521;50.498;8.474;2023-04-24T12:26:26;9.18;79.82
12907;DHT22;6521;50.498;8.474;2023-04-24T12:29:01;9.09;80.20
12907;DHT22;6521;50.498;8.474;2023-04-24T12:31:32;9.06;80.64
12907;DHT22;6521;50.498;8.474;2023-04-24T12:34:03;9.00;81.72
12907;DHT22;6521;50.498;8.474;2023-04-24T12:36:35;9.05;81.98
12907;DHT22;6521;50.498;8.474;2023-04-24T12:39:14;9.10;82.07
12907;DHT22;6521;50.498;8.474;2023-04-24T12:41:56;9.09;81.32
12907;DHT22;6521;50.498;8.474;2023-04-24T12:44:32;9.22;82.43
12907;DHT22;6521;50.498;8.474;2023-04-24T12:47:04;9.47;82.73
12907;DHT22;6521;50.498;8.474;2023-04-24T12:49:39;9.64;80.85
12907;DHT22;6521;50.498;8.474;2023-04-24T12:52:10;9.81;81.41
12907;DHT22;6521;50.498;8.474;2023-04-24T12:54:41;10.10;81.27
12907;DHT22;6521;50.498;8.474;2023-04-24T12:57:17;10.30;79.82
12907;DHT22;6521;50.498;8.474;2023-04-24T12:59:48;10.35;80.22
12907;DHT22;6521;50.498;8.474;2023-04-24T13:02:19;10.36;78.97
12907;DHT22;6521;50.498;8.474;2023-04-24T13:04:52;10.40;79.67
12907;DHT22;6521;50.498;8.474;2023-04-24T13:07:23;10.38;79.34
12907;DHT22;6521;50.498;8.474;2023-04-24T13:09:56;10.18;79.23
12907;DHT22;6521;50.498;8.474;2023-04-24T13:12:27;10.16;79.75
12907;DHT22;6521;50.498;8.474;2023-04-24T13:14:58;10.26;79.67
12907;DHT22;6521;50.498;8.474;2023-04-24T13:17:29;10.39;80.28
12907;DHT22;6521;50.498;8.474;2023-04-24T13:20:00;10.49;78.65
12907;DHT22;6521;50.498;8.474;2023-04-24T13:22:31;10.40;78.68
12907;DHT22;6521;50.498;8.474;2023-04-24T13:25:02;10.30;79.64
12907;DHT22;6521;50.498;8.474;2023-04-24T13:27:32;10.28;80.32
12907;DHT22;6521;50.498;8.474;2023-04-24T13:30:04;10.01;81.48
12907;DHT22;6521;50.498;8.474;2023-04-24T13:32:35;9.95;82.66
12907;DHT22;6521;50.498;8.474;2023-04-24T13:35:06;9.94;82.58
12907;DHT22;6521;50.498;8.474;2023-04-24T13:37:37;9.92;82.28
12907;DHT22;6521;50.498;8.474;2023-04-24T13:40:08;9.91;81.89
12907;DHT22;6521;50.498;8.474;2023-04-24T13:42:39;9.85;82.07
12907;DHT22;6521;50.498;8.474;2023-04-24T13:45:10;10.08;83.53
12907;DHT22;6521;50.498;8.474;2023-04-24T13:47:42;10.40;83.11
12907;DHT22;6521;50.498;8.474;2023-04-24T13:50:13;10.59;80.43
12907;DHT22;6521;50.498;8.474;2023-04-24T13:52:44;10.77;79.18
12907;DHT22;6521;50.498;8.474;2023-04-24T13:55:15;10.77;78.39
12907;DHT22;6521;50.498;8.474;2023-04-24T13:57:45;10.87;78.91
12907;DHT22;6521;50.498;8.474;2023-04-24T14:00:17;10.91;77.22
12907;DHT22;6521;50.498;8.474;2023-04-24T14:02:48;11.17;77.48
12907;DHT22;6521;50.498;8.474;2023-04-24T14:05:19;11.63;77.70
12907;DHT22;6521;50.498;8.474;2023-04-24T14:07:52;12.01;74.47
12907;DHT22;6521;50.498;8.474;2023-04-24T14:10:22;12.20;73.53
12907;DHT22;6521;50.498;8.474;2023-04-24T14:12:54;12.12;72.37
12907;DHT22;6521;50.498;8.474;2023-04-24T14:15:25;11.76;71.21
12907;DHT22;6521;50.498;8.474;2023-04-24T14:17:56;11.98;72.72
12907;DHT22;6521;50.498;8.474;2023-04-24T14:20:27;12.31;73.10
12907;DHT22;6521;50.498;8.474;2023-04-24T14:22:58;12.56;68.14
12907;DHT22;6521;50.498;8.474;2023-04-24T14:25:30;12.78;68.47
12907;DHT22;6521;50.498;8.474;2023-04-24T14:28:00;12.91;67.66
12907;DHT22;6521;50.498;8.474;2023-04-24T14:30:31;13.02;65.35
12907;DHT22;6521;50.498;8.474;2023-04-24T14:33:03;13.12;66.08
12907;DHT22;6521;50.498;8.474;2023-04-24T14:35:34;13.17;65.53
12907;DHT22;6521;50.498;8.474;2023-04-24T14:38:05;12.86;64.73
12907;DHT22;6521;50.498;8.474;2023-04-24T14:40:37;12.33;66.01
12907;DHT22;6521;50.498;8.474;2023-04-24T14:43:08;11.90;67.34
12907;DHT22;6521;50.498;8.474;2023-04-24T14:45:39;11.85;69.32
12907;DHT22;6521;50.498;8.474;2023-04-24T14:48:11;11.89;67.73
12907;DHT22;6521;50.498;8.474;2023-04-24T14:50:42;11.93;67.76
12907;DHT22;6521;50.498;8.474;2023-04-24T14:53:14;11.93;66.97
12907;DHT22;6521;50.498;8.474;2023-04-24T14:55:44;11.87;68.11
12907;DHT22;6521;50.498;8.474;2023-04-24T14:58:15;11.80;65.85
12907;DHT22;6521;50.498;8.474;2023-04-24T15:00:46;11.42;67.12
12907;DHT22;6521;50.498;8.474;2023-04-24T15:03:20;10.49;70.54
12907;DHT22;6521;50.498;8.474;2023-04-24T15:05:52;10.05;74.39
12907;DHT22;6521;50.498;8.474;2023-04-24T15:08:22;9.85;75.89
12907;DHT22;6521;50.498;8.474;2023-04-24T15:10:54;9.78;76.67
12907;DHT22;6521;50.498;8.474;2023-04-24T15:13:25;9.80;77.16
12907;DHT22;6521;50.498;8.474;2023-04-24T15:15:56;9.89;76.61
12907;DHT22;6521;50.498;8.474;2023-04-24T15:18:27;10.16;77.16
12907;DHT22;6521;50.498;8.474;2023-04-24T15:21:00;10.36;75.19
12907;DHT22;6521;50.498;8.474;2023-04-24T15:23:30;10.42;74.91
12907;DHT22;6521;50.498;8.474;2023-04-24T15:26:01;10.32;74.64
12907;DHT22;6521;50.498;8.474;2023-04-24T15:28:32;10.26;74.74
12907;DHT22;6521;50.498;8.474;2023-04-24T15:31:03;10.18;74.97
12907;DHT22;6521;50.498;8.474;2023-04-24T15:33:34;10.16;75.31
12907;DHT22;6521;50.498;8.474;2023-04-24T15:36:05;10.10;75.15
12907;DHT22;6521;50.498;8.474;2023-04-24T15:38:36;10.02;75.56
12907;DHT22;6521;50.498;8.474;2023-04-24T15:41:07;9.94;76.20
12907;DHT22;6521;50.498;8.474;2023-04-24T15:43:38;9.87;76.13
12907;DHT22;6521;50.498;8.474;2023-04-24T15:46:11;9.89;76.49
12907;DHT22;6521;50.498;8.474;2023-04-24T15:48:42;9.85;76.04
12907;DHT22;6521;50.498;8.474;2023-04-24T15:51:13;9.89;74.97
12907;DHT22;6521;50.498;8.474;2023-04-24T15:53:43;9.97;75.48
12907;DHT22;6521;50.498;8.474;2023-04-24T15:56:16;10.12;75.70
12907;DHT22;6521;50.498;8.474;2023-04-24T15:58:47;10.35;74.14
12907;DHT22;6521;50.498;8.474;2023-04-24T16:01:17;10.55;74.35
12907;DHT22;6521;50.498;8.474;2023-04-24T16:03:48;10.60;73.10
12907;DHT22;6521;50.498;8.474;2023-04-24T16:06:19;10.57;72.92
12907;DHT22;6521;50.498;8.474;2023-04-24T16:08:50;10.56;73.47
12907;DHT22;6521;50.498;8.474;2023-04-24T16:11:20;10.56;73.66
12907;DHT22;6521;50.498;8.474;2023-04-24T16:13:51;10.50;73.35
12907;DHT22;6521;50.498;8.474;2023-04-24T16:16:22;10.45;73.26
12907;DHT22;6521;50.498;8.474;2023-04-24T16:18:53;10.46;72.56
12907;DHT22;6521;50.498;8.474;2023-04-24T16:21:24;10.46;72.67
12907;DHT22;6521;50.498;8.474;2023-04-24T16:23:55;10.53;70.99
12907;DHT22;6521;50.498;8.474;2023-04-24T16:26:25;10.52;71.42
12907;DHT22;6521;50.498;8.474;2023-04-24T16:28:56;10.52;71.56
12907;DHT22;6521;50.498;8.474;2023-04-24T16:31:27;10.56;72.37
12907;DHT22;6521;50.498;8.474;2023-04-24T16:33:58;10.66;72.14
12907;DHT22;6521;50.498;8.474;2023-04-24T16:36:29;10.87;70.53
12907;DHT22;6521;50.498;8.474;2023-04-24T16:38:59;11.04;70.50
12907;DHT22;6521;50.498;8.474;2023-04-24T16:41:30;11.07;70.47
12907;DHT22;6521;50.498;8.474;2023-04-24T16:44:01;11.04;70.27
12907;DHT22;6521;50.498;8.474;2023-04-24T16:46:32;11.15;70.18
12907;DHT22;6521;50.498;8.474;2023-04-24T16:49:02;11.14;68.32
12907;DHT22;6521;50.498;8.474;2023-04-24T16:51:33;11.12;68.25
12907;DHT22;6521;50.498;8.474;2023-04-24T16:54:04;11.11;68.47
12907;DHT22;6521;50.498;8.474;2023-04-24T16:56:35;11.05;68.09
12907;DHT22;6521;50.498;8.474;2023-04-24T16:59:06;11.03;68.24
12907;DHT22;6521;50.498;8.474;2023-04-24T17:01:37;10.96;68.77
12907;DHT22;6521;50.498;8.474;2023-04-24T17:04:08;10.81;69.23